EmailTwitter


Observations de surface / France / LFMP (07747)

Régions: Québec | Canada | États-Unis | Europe | France | UK | Ailleurs
Station
Affichage
Infos & localisation pour LFMP (07747) | Aide pour décoder les METARs

Observations prises le 2020-02-19 à 17H30 UTC à PERPIGNAN/RIVESA, FR (LFMP)

Température: 13.0 Celsius

Point de rosée: 3.0 Celsius

Humidité relative: 51%

Vents: Nord-ouest à 7 km/h ou 4 noeuds.

Pression au niveau moyen de la mer: 102.80 kilopascals.

Observation METAR:

LFMP 191730Z AUTO 33004KT 290V010 CAVOK 13/03 Q1028 TEMPO 31020G30KT=